Time;durP1;ratioP1;P1;durP2;ratioP2;P2;SDS_P1;SDS_P2;PMS_P1;PMS_P2;Temp;Humidity;BMP_temperature;BMP_pressure;BME280_temperature;BME280_humidity;BME280_pressure;Samples;Min_cycle;Max_cycle;Signal;HPM_P1;HPM_P2
2021/11/22 00:01:19;;;;;;;;;;;;;;;7.26;100.00;98593.56;1722108;82;20247;-65
2021/11/22 00:03:46;;;;;;;;;;;;;;;7.26;100.00;98595.44;1722235;82;21129;-65
2021/11/22 00:06:15;;;;;;;;;;;;;;;7.23;100.00;98607.43;1721978;82;20121;-66
2021/11/22 00:08:42;;;;;;;;;;;;;;;7.20;100.00;98608.45;1722120;82;20396;-66
2021/11/22 00:11:10;;;;;;;;;;;;;;;7.19;100.00;98610.86;1716306;82;20089;-66
2021/11/22 00:13:38;;;;;;;;;;;;;;;7.15;100.00;98610.55;1721792;82;20243;-67
2021/11/22 00:16:05;;;;;;;;;;;;;;;7.13;100.00;98614.52;1721645;82;21177;-65
2021/11/22 00:18:33;;;;;;;;;;;;;;;7.12;100.00;98610.26;1719626;81;20136;-66
2021/11/22 00:21:00;;;;;;;;;;;;;;;7.10;100.00;98611.84;1698392;83;20147;-66
2021/11/22 00:23:29;;;;;;;;;;;;;;;7.08;100.00;98616.65;1712796;83;20196;-66
2021/11/22 00:25:55;;;;;;;;;;;;;;;7.05;100.00;98619.27;1698844;83;20130;-66
2021/11/22 00:28:22;;;;;;;;;;;;;;;7.01;100.00;98622.19;1717283;82;21133;-65
2021/11/22 00:31:06;;;;;;;;;;;;;;;6.99;100.00;98622.95;1720547;83;20172;-65
2021/11/22 00:33:34;;;;;;;;;;;;;;;6.97;100.00;98630.94;1721888;82;20431;-65
2021/11/22 00:36:06;;;;;;;;;;;;;;;6.93;100.00;98633.30;1693901;82;20097;-65
2021/11/22 00:38:32;;;;;;;;;;;;;;;6.89;100.00;98634.08;1722220;82;20168;-65
2021/11/22 00:40:59;;;;;;;;;;;;;;;6.87;100.00;98634.31;1722218;82;21142;-65
2021/11/22 00:43:26;;;;;;;;;;;;;;;6.84;100.00;98630.83;1722145;83;20160;-65
2021/11/22 00:45:52;;;;;;;;;;;;;;;6.83;100.00;98634.00;1722542;82;20124;-65
2021/11/22 00:48:21;;;;;;;;;;;;;;;6.82;100.00;98644.41;1722273;82;20133;-65
2021/11/22 00:50:51;;;;;;;;;;;;;;;6.81;100.00;98641.97;1722415;82;20116;-65
2021/11/22 00:53:18;;;;;;;;;;;;;;;6.79;100.00;98642.24;1721899;82;21214;-65
2021/11/22 00:55:45;;;;;;;;;;;;;;;6.78;100.00;98650.48;1735616;81;20132;-65
2021/11/22 00:58:12;;;;;;;;;;;;;;;6.75;100.00;98651.80;1743107;82;20091;-65
2021/11/22 01:00:39;;;;;;;;;;;;;;;6.74;100.00;98660.06;1742971;82;20095;-65
2021/11/22 01:03:06;;;;;;;;;;;;;;;6.72;100.00;98653.63;1743027;81;20083;-65
2021/11/22 01:05:33;;;;;;;;;;;;;;;6.71;100.00;98652.54;1742642;82;21123;-65
2021/11/22 01:08:01;;;;;;;;;;;;;;;6.71;100.00;98648.54;1743193;82;20115;-64
2021/11/22 01:10:27;;;;;;;;;;;;;;;6.70;100.00;98652.28;1742904;82;20095;-63
2021/11/22 01:12:54;;;;;;;;;;;;;;;6.69;100.00;98655.98;1742639;82;20131;-64
2021/11/22 01:15:22;;;;;;;;;;;;;;;6.69;100.00;98651.98;1743370;82;20131;-65
2021/11/22 01:17:50;;;;;;;;;;;;;;;6.68;100.00;98651.18;1742397;82;21129;-65
2021/11/22 01:20:20;;;;;;;;;;;;;;;6.64;100.00;98646.09;1743247;82;20166;-64
2021/11/22 01:22:47;;;;;;;;;;;;;;;6.64;100.00;98648.22;1743554;81;20131;-64
2021/11/22 01:25:14;;;;;;;;;;;;;;;6.62;100.00;98646.33;1743291;82;20397;-65
2021/11/22 01:27:40;;;;;;;;;;;;;;;6.60;100.00;98643.64;1742876;81;20068;-65
2021/11/22 01:30:10;;;;;;;;;;;;;;;6.57;100.00;98650.27;1743191;81;21205;-64
2021/11/22 01:32:38;;;;;;;;;;;;;;;6.56;100.00;98654.51;1743253;82;20142;-65
2021/11/22 01:35:06;;;;;;;;;;;;;;;6.55;100.00;98651.05;1743020;82;20138;-65
2021/11/22 01:37:34;;;;;;;;;;;;;;;6.54;100.00;98649.45;1743197;82;20393;-64
2021/11/22 01:40:01;;;;;;;;;;;;;;;6.54;100.00;98652.11;1743221;82;20460;-63
2021/11/22 01:42:28;;;;;;;;;;;;;;;6.54;100.00;98652.11;1742929;81;21193;-64
2021/11/22 01:44:55;;;;;;;;;;;;;;;6.55;100.00;98648.91;1743056;82;20609;-65
2021/11/22 01:47:22;;;;;;;;;;;;;;;6.55;100.00;98646.25;1743224;82;20150;-64
2021/11/22 01:49:49;;;;;;;;;;;;;;;6.55;100.00;98653.71;1743271;81;20152;-65
2021/11/22 01:52:16;;;;;;;;;;;;;;;6.56;100.00;98649.17;1743359;82;20154;-64
2021/11/22 01:54:44;;;;;;;;;;;;;;;6.55;100.00;98649.71;1743567;81;21889;-65
2021/11/22 01:57:12;;;;;;;;;;;;;;;6.56;100.00;98651.84;1742837;82;20154;-64
2021/11/22 01:59:39;;;;;;;;;;;;;;;6.56;100.00;98649.98;1742750;82;20110;-63
2021/11/22 02:02:05;;;;;;;;;;;;;;;6.54;100.00;98646.78;1739611;82;20437;-63
2021/11/22 02:04:32;;;;;;;;;;;;;;;6.55;100.00;98652.37;1742916;82;20083;-62
2021/11/22 02:06:59;;;;;;;;;;;;;;;6.57;100.00;98653.47;1742889;81;21770;-62
2021/11/22 02:09:27;;;;;;;;;;;;;;;6.55;100.00;98651.05;1742602;82;20453;-65
2021/11/22 02:11:54;;;;;;;;;;;;;;;6.55;100.00;98656.38;1742939;81;20417;-64
2021/11/22 02:14:21;;;;;;;;;;;;;;;6.55;100.00;98655.05;1742973;82;20464;-64
2021/11/22 02:16:48;;;;;;;;;;;;;;;6.54;100.00;98660.11;1740332;82;20162;-65
2021/11/22 02:19:14;;;;;;;;;;;;;;;6.54;100.00;98661.45;1743154;82;21843;-64
2021/11/22 02:21:54;;;;;;;;;;;;;;;6.52;100.00;98662.22;1688020;84;20121;-64
2021/11/22 02:24:21;;;;;;;;;;;;;;;6.50;100.00;98666.19;1684748;84;20182;-63
2021/11/22 02:27:07;;;;;;;;;;;;;;;6.51;100.00;98667.78;1693588;84;20483;-64
2021/11/22 02:29:34;;;;;;;;;;;;;;;6.50;100.00;98670.19;1715140;83;20081;-64
2021/11/22 02:32:00;;;;;;;;;;;;;;;6.48;100.00;98662.42;1743072;82;21801;-63
2021/11/22 02:34:27;;;;;;;;;;;;;;;6.47;100.00;98662.16;1745088;81;20132;-64
2021/11/22 02:36:54;;;;;;;;;;;;;;;6.44;100.00;98669.30;1740758;82;20100;-64
2021/11/22 02:39:21;;;;;;;;;;;;;;;6.41;100.00;98671.93;1740637;82;20119;-65
2021/11/22 02:41:47;;;;;;;;;;;;;;;6.39;100.00;98671.40;1738949;82;20441;-64
2021/11/22 02:44:16;;;;;;;;;;;;;;;6.38;100.00;98672.97;1735581;82;20089;-65
2021/11/22 02:46:43;;;;;;;;;;;;;;;6.37;100.00;98675.34;1730800;83;20137;-64
2021/11/22 02:49:09;;;;;;;;;;;;;;;6.37;100.00;98676.67;1730587;83;20521;-64
2021/11/22 02:51:37;;;;;;;;;;;;;;;6.36;100.00;98683.86;1729742;83;20128;-64
2021/11/22 02:54:04;;;;;;;;;;;;;;;6.38;100.00;98684.96;1705513;83;20112;-64
2021/11/22 02:56:32;;;;;;;;;;;;;;;6.37;100.00;98682.83;1729865;83;21796;-65
2021/11/22 02:58:59;;;;;;;;;;;;;;;6.38;100.00;98685.77;1730252;83;20128;-64
2021/11/22 03:01:26;;;;;;;;;;;;;;;6.39;100.00;98684.73;1730728;83;20109;-64
2021/11/22 03:03:54;;;;;;;;;;;;;;;6.39;100.00;98684.73;1747086;81;20099;-65
2021/11/22 03:06:22;;;;;;;;;;;;;;;6.38;100.00;98693.76;1746989;81;20122;-64
2021/11/22 03:08:49;;;;;;;;;;;;;;;6.38;100.00;98700.42;1748751;81;21688;-64
2021/11/22 03:11:19;;;;;;;;;;;;;;;6.38;100.00;98707.62;1748523;81;20131;-64
2021/11/22 03:13:46;;;;;;;;;;;;;;;6.37;100.00;98706.82;1740379;82;20096;-65
2021/11/22 03:16:13;;;;;;;;;;;;;;;6.37;100.00;98712.15;1734830;82;20085;-65
2021/11/22 03:18:41;;;;;;;;;;;;;;;6.38;100.00;98712.95;1727209;83;20395;-65
2021/11/22 03:21:07;;;;;;;;;;;;;;;6.38;100.00;98716.95;1727269;83;21133;-65
2021/11/22 03:23:34;;;;;;;;;;;;;;;6.42;100.00;98720.20;1727295;83;20248;-63
2021/11/22 03:26:02;;;;;;;;;;;;;;;6.46;100.00;98725.04;1727493;83;20085;-63
2021/11/22 03:28:31;;;;;;;;;;;;;;;6.49;100.00;98729.34;1718932;82;20472;-66
2021/11/22 03:30:59;;;;;;;;;;;;;;;6.51;100.00;98729.91;1694574;84;20724;-65
2021/11/22 03:33:25;;;;;;;;;;;;;;;6.52;100.00;98731.53;1701386;83;21110;-65
2021/11/22 03:35:54;;;;;;;;;;;;;;;6.53;100.00;98733.13;1694982;84;20394;-65
2021/11/22 03:38:21;;;;;;;;;;;;;;;6.50;100.00;98734.97;1697053;83;20250;-64
2021/11/22 03:40:51;;;;;;;;;;;;;;;6.48;100.00;98740.27;1703470;83;20454;-64
2021/11/22 03:43:27;;;;;;;;;;;;;;;6.47;100.00;98745.30;1696456;84;20073;-64
2021/11/22 03:45:47;;;;;;;;;;;;;;;6.44;100.00;98748.77;1697524;82;21078;-66
2021/11/22 03:48:14;;;;;;;;;;;;;;;6.44;100.00;98750.59;1708861;83;20411;-66
2021/11/22 03:50:41;;;;;;;;;;;;;;;6.40;100.00;98755.62;1712533;83;20136;-66
2021/11/22 03:53:08;;;;;;;;;;;;;;;6.38;100.00;98755.59;1701621;83;20096;-66
2021/11/22 03:55:35;;;;;;;;;;;;;;;6.37;100.00;98757.46;1698377;83;20128;-67
2021/11/22 03:58:02;;;;;;;;;;;;;;;6.35;100.00;98758.77;1704900;83;21216;-66
2021/11/22 04:00:28;;;;;;;;;;;;;;;6.35;100.00;98768.09;1717156;83;20119;-65
2021/11/22 04:02:55;;;;;;;;;;;;;;;6.34;100.00;98767.79;1713129;83;20121;-64
2021/11/22 04:05:22;;;;;;;;;;;;;;;6.30;100.00;98764.02;1724977;83;20129;-64
2021/11/22 04:07:49;;;;;;;;;;;;;;;6.34;100.00;98775.79;1701680;83;20119;-67
2021/11/22 04:10:16;;;;;;;;;;;;;;;6.31;100.00;98774.95;1726993;83;21088;-66
2021/11/22 04:12:43;;;;;;;;;;;;;;;6.31;100.00;98779.75;1718121;83;20119;-67
2021/11/22 04:15:10;;;;;;;;;;;;;;;6.29;100.00;98780.52;1698167;83;20159;-67
2021/11/22 04:17:38;;;;;;;;;;;;;;;6.27;100.00;98779.14;1724465;83;20496;-66
2021/11/22 04:20:06;;;;;;;;;;;;;;;6.24;100.00;98785.77;1726944;83;20116;-66
2021/11/22 04:22:33;;;;;;;;;;;;;;;6.23;100.00;98792.17;1702267;83;21618;-66
2021/11/22 04:25:00;;;;;;;;;;;;;;;6.19;100.00;98793.16;1697843;84;20175;-67
2021/11/22 04:27:27;;;;;;;;;;;;;;;6.18;100.00;98794.76;1676811;85;20088;-65
2021/11/22 04:29:53;;;;;;;;;;;;;;;6.15;100.00;98796.05;1728554;83;20171;-65
2021/11/22 04:32:20;;;;;;;;;;;;;;;6.16;100.00;98800.84;1731729;82;20171;-65
2021/11/22 04:34:47;;;;;;;;;;;;;;;6.16;100.00;98803.52;1700237;83;21139;-66
2021/11/22 04:37:14;;;;;;;;;;;;;;;6.13;100.00;98801.34;1731191;83;20176;-65
2021/11/22 04:39:41;;;;;;;;;;;;;;;6.12;100.00;98809.03;1730937;83;20093;-65
2021/11/22 04:42:08;;;;;;;;;;;;;;;6.11;100.00;98813.56;1731098;82;20073;-67
2021/11/22 04:44:35;;;;;;;;;;;;;;;6.07;100.00;98816.42;1726845;83;20105;-67
2021/11/22 04:47:09;;;;;;;;;;;;;;;6.04;100.00;98818.25;1731246;82;21142;-68
2021/11/22 04:49:33;;;;;;;;;;;;;;;6.02;100.00;98830.99;1720825;83;20093;-64
2021/11/22 04:52:00;;;;;;;;;;;;;;;6.00;100.00;98838.41;1722190;83;20124;-66
2021/11/22 04:54:27;;;;;;;;;;;;;;;5.96;100.00;98831.45;1721969;83;20085;-67
2021/11/22 04:56:54;;;;;;;;;;;;;;;5.93;100.00;98834.56;1724191;83;20402;-67
2021/11/22 04:59:21;;;;;;;;;;;;;;;5.89;100.00;98841.41;1712636;83;21136;-66
2021/11/22 05:01:48;;;;;;;;;;;;;;;5.84;100.00;98844.52;1730950;83;20137;-67
2021/11/22 05:04:15;;;;;;;;;;;;;;;5.82;100.00;98849.27;1731453;83;20421;-67
2021/11/22 05:06:41;;;;;;;;;;;;;;;5.76;100.00;98847.05;1731126;81;20101;-67
2021/11/22 05:09:08;;;;;;;;;;;;;;;5.71;100.00;98848.30;1731335;83;20096;-67
2021/11/22 05:11:37;;;;;;;;;;;;;;;5.66;100.00;98846.84;1731284;83;20238;-67
2021/11/22 05:14:03;;;;;;;;;;;;;;;5.59;100.00;98851.00;1730760;83;20406;-66
2021/11/22 05:16:30;;;;;;;;;;;;;;;5.56;100.00;98856.28;1732106;83;20120;-66
2021/11/22 05:18:57;;;;;;;;;;;;;;;5.53;100.00;98863.39;1730841;83;20413;-67
2021/11/22 05:21:25;;;;;;;;;;;;;;;5.50;100.00;98862.55;1731244;83;20116;-67
2021/11/22 05:23:54;;;;;;;;;;;;;;;5.47;100.00;98869.68;1730819;83;21894;-67
2021/11/22 05:26:21;;;;;;;;;;;;;;;5.46;100.00;98879.22;1713670;83;20101;-67
2021/11/22 05:28:48;;;;;;;;;;;;;;;5.45;100.00;98887.73;1717072;83;20124;-68
2021/11/22 05:31:15;;;;;;;;;;;;;;;5.45;100.00;98898.91;1700220;83;20414;-65
2021/11/22 05:33:42;;;;;;;;;;;;;;;5.45;100.00;98902.91;1708489;83;20120;-67
2021/11/22 05:36:09;;;;;;;;;;;;;;;5.42;100.00;98900.19;1706188;83;21091;-68
2021/11/22 05:38:36;;;;;;;;;;;;;;;5.42;100.00;98903.38;1711321;83;20118;-68
2021/11/22 05:41:02;;;;;;;;;;;;;;;5.41;100.00;98912.39;1718804;83;20086;-67
2021/11/22 05:43:30;;;;;;;;;;;;;;;5.40;100.00;98905.47;1696025;84;20580;-67
2021/11/22 05:45:57;;;;;;;;;;;;;;;5.37;100.00;98910.73;1693044;84;20082;-67
2021/11/22 05:48:24;;;;;;;;;;;;;;;5.32;100.00;98908.78;1714979;83;22445;-66
2021/11/22 05:50:53;;;;;;;;;;;;;;;5.30;100.00;98915.38;1712085;83;20943;-66
2021/11/22 05:53:20;;;;;;;;;;;;;;;5.28;100.00;98917.46;1697699;84;20150;-67
2021/11/22 05:55:52;;;;;;;;;;;;;;;5.25;100.00;98925.39;1670209;83;20115;-68
2021/11/22 05:58:19;;;;;;;;;;;;;;;5.21;100.00;98932.22;1684257;83;20138;-66
2021/11/22 06:00:46;;;;;;;;;;;;;;;5.18;100.00;98938.02;1673169;84;21817;-67
2021/11/22 06:03:13;;;;;;;;;;;;;;;5.13;100.00;98936.57;1696285;83;20105;-67
2021/11/22 06:05:41;;;;;;;;;;;;;;;5.10;100.00;98945.03;1718658;83;20364;-67
2021/11/22 06:11:40;;;;;;;;;;;;;;;5.04;100.00;98951.27;1638245;87;20185;-67
2021/11/22 06:14:06;;;;;;;;;;;;;;;5.01;100.00;98958.38;1654081;84;21121;-68
2021/11/22 06:16:33;;;;;;;;;;;;;;;4.99;100.00;98963.13;1661741;84;20095;-67
2021/11/22 06:25:36;;;;;;;;;;;;;;;4.92;100.00;98973.37;1614392;87;20192;-67
2021/11/22 06:28:04;;;;;;;;;;;;;;;4.93;100.00;98970.19;1618309;87;21147;-66
2021/11/22 06:30:31;;;;;;;;;;;;;;;4.92;100.00;98974.70;1613276;87;20246;-66
2021/11/22 06:32:58;;;;;;;;;;;;;;;4.91;100.00;98985.03;1591869;87;20208;-67
2021/11/22 06:35:25;;;;;;;;;;;;;;;4.91;100.00;98978.38;1609713;87;20269;-68
2021/11/22 06:37:52;;;;;;;;;;;;;;;4.89;100.00;98981.78;1614726;88;20175;-68
2021/11/22 06:40:19;;;;;;;;;;;;;;;4.90;100.00;98984.75;1618549;87;22163;-65
2021/11/22 06:42:46;;;;;;;;;;;;;;;4.90;100.00;98991.40;1665937;85;20436;-66
2021/11/22 06:45:13;;;;;;;;;;;;;;;4.92;100.00;98995.14;1671809;85;20212;-67
2021/11/22 06:47:42;;;;;;;;;;;;;;;4.93;100.00;98995.45;1672641;84;20184;-65
2021/11/22 06:50:11;;;;;;;;;;;;;;;4.93;100.00;99004.75;1673338;84;20217;-68
2021/11/22 06:56:41;;;;;;;;;;;;;;;4.94;100.00;99012.48;1710731;83;20079;-65
2021/11/22 06:59:10;;;;;;;;;;;;;;;4.96;100.00;99014.92;1738378;82;20126;-66
2021/11/22 07:01:37;;;;;;;;;;;;;;;4.99;100.00;99017.12;1743904;79;20168;-66
2021/11/22 07:04:05;;;;;;;;;;;;;;;5.01;100.00;99025.69;1796789;78;20199;-67
2021/11/22 07:06:32;;;;;;;;;;;;;;;4.97;100.00;99029.03;1797603;79;21063;-66
2021/11/22 07:08:59;;;;;;;;;;;;;;;4.96;100.00;99028.75;1796966;79;20098;-67
2021/11/22 07:11:26;;;;;;;;;;;;;;;4.97;100.00;99027.17;1797635;79;20114;-66
2021/11/22 07:13:52;;;;;;;;;;;;;;;4.97;100.00;99033.02;1766218;79;20175;-65
2021/11/22 07:16:20;;;;;;;;;;;;;;;5.01;100.00;99036.84;1767870;79;20446;-66
2021/11/22 07:18:47;;;;;;;;;;;;;;;5.03;100.00;99040.09;1780791;80;21113;-67
2021/11/22 07:21:13;;;;;;;;;;;;;;;5.06;100.00;99037.77;1760358;80;20122;-67
2021/11/22 07:23:41;;;;;;;;;;;;;;;5.14;100.00;99043.27;1747314;82;20193;-66
2021/11/22 07:26:07;;;;;;;;;;;;;;;5.15;100.00;99054.22;1742205;82;20147;-66
2021/11/22 07:28:34;;;;;;;;;;;;;;;5.19;100.00;99059.34;1737419;80;20194;-66
2021/11/22 07:31:01;;;;;;;;;;;;;;;5.22;100.00;99066.89;1697207;81;21206;-65
2021/11/22 07:33:27;;;;;;;;;;;;;;;5.23;100.00;99073.81;1732065;82;20095;-67
2021/11/22 07:35:54;;;;;;;;;;;;;;;5.22;100.00;99082.02;1731301;82;20146;-67
2021/11/22 07:38:21;;;;;;;;;;;;;;;5.24;100.00;99078.12;1718054;83;20108;-65
2021/11/22 07:40:47;;;;;;;;;;;;;;;5.30;100.00;99078.51;1725923;82;20424;-68
2021/11/22 07:43:17;;;;;;;;;;;;;;;5.38;100.00;99082.14;1743554;81;21069;-66
2021/11/22 07:45:44;;;;;;;;;;;;;;;5.45;100.00;99090.03;1729113;81;20133;-67
2021/11/22 07:48:11;;;;;;;;;;;;;;;5.38;100.00;99084.81;1721784;83;20422;-67
2021/11/22 07:50:38;;;;;;;;;;;;;;;5.34;100.00;99092.98;1723260;83;20167;-66
2021/11/22 07:53:05;;;;;;;;;;;;;;;5.26;100.00;99089.84;1699145;82;20151;-67
2021/11/22 07:55:32;;;;;;;;;;;;;;;5.24;100.00;99098.57;1691572;82;21150;-66
2021/11/22 07:57:59;;;;;;;;;;;;;;;5.24;100.00;99091.42;1699945;83;20160;-66
2021/11/22 08:00:26;;;;;;;;;;;;;;;5.22;100.00;99089.50;1717711;82;20169;-66
2021/11/22 08:02:53;;;;;;;;;;;;;;;5.24;100.00;99098.08;1720878;83;20193;-66
2021/11/22 08:05:20;;;;;;;;;;;;;;;5.27;100.00;99097.61;1716547;83;20161;-65
2021/11/22 08:07:50;;;;;;;;;;;;;;;5.26;100.00;99105.80;1716723;83;21141;-67
2021/11/22 08:12:53;;;;;;;;;;;;;;;5.64;100.00;99113.88;1733655;81;20430;-66
2021/11/22 08:15:20;;;;;;;;;;;;;;;6.49;100.00;99121.25;1713920;83;20185;-66
2021/11/22 08:17:47;;;;;;;;;;;;;;;7.16;100.00;99135.81;1713730;82;20411;-68
2021/11/22 08:20:14;;;;;;;;;;;;;;;7.30;98.44;99136.59;1716023;83;21147;-67
2021/11/22 08:22:41;;;;;;;;;;;;;;;7.39;96.72;99130.83;1720245;81;20105;-67
2021/11/22 08:25:43;;;;;;;;;;;;;;;7.48;94.72;99130.72;1719192;82;20185;-69
2021/11/22 08:29:22;;;;;;;;;;;;;;;7.56;94.79;99137.50;1503182;95;20503;-68
2021/11/22 08:31:48;;;;;;;;;;;;;;;7.62;93.02;99137.84;1494729;94;20168;-68
2021/11/22 08:34:18;;;;;;;;;;;;;;;7.48;93.22;99148.08;1516307;94;21250;-68
2021/11/22 08:40:42;;;;;;;;;;;;;;;7.30;94.17;99149.13;1513942;94;20472;-68
2021/11/22 08:43:11;;;;;;;;;;;;;;;7.65;90.10;99152.88;1502729;93;20183;-67
2021/11/22 08:45:40;;;;;;;;;;;;;;;8.00;88.34;99150.97;1501552;95;20218;-67
2021/11/22 08:48:07;;;;;;;;;;;;;;;8.23;85.75;99155.27;1501860;95;21177;-67
2021/11/22 08:50:35;;;;;;;;;;;;;;;8.49;83.48;99159.10;1500205;95;20404;-68
2021/11/22 08:53:02;;;;;;;;;;;;;;;8.35;83.53;99149.27;1499946;95;20216;-68
2021/11/22 08:55:29;;;;;;;;;;;;;;;7.96;85.63;99145.28;1506314;94;20196;-68
2021/11/22 08:57:57;;;;;;;;;;;;;;;7.34;86.62;99145.44;1520640;93;20198;-68
2021/11/22 09:00:27;;;;;;;;;;;;;;;7.10;89.77;99148.23;1546652;93;21170;-68
2021/11/22 09:02:54;;;;;;;;;;;;;;;7.27;89.34;99144.25;1548395;92;20218;-67
2021/11/22 09:05:21;;;;;;;;;;;;;;;7.18;89.01;99146.53;1623397;83;20152;-69
2021/11/22 09:07:48;;;;;;;;;;;;;;;7.07;91.45;99154.87;1722963;83;20204;-67
2021/11/22 09:10:15;;;;;;;;;;;;;;;6.99;90.66;99155.80;1721978;83;20402;-68
2021/11/22 09:12:43;;;;;;;;;;;;;;;6.67;91.11;99158.14;1722352;82;21121;-67
2021/11/22 09:15:10;;;;;;;;;;;;;;;6.52;92.53;99150.13;1721627;83;20404;-67
2021/11/22 09:17:36;;;;;;;;;;;;;;;6.46;95.87;99160.39;1721845;83;20140;-67
2021/11/22 09:20:05;;;;;;;;;;;;;;;6.53;93.28;99146.41;1762747;79;20156;-66
2021/11/22 09:22:32;;;;;;;;;;;;;;;6.59;93.16;99152.14;1816276;79;20160;-66
2021/11/22 09:25:03;;;;;;;;;;;;;;;6.60;93.43;99153.75;1813612;79;21103;-67
2021/11/22 09:27:29;;;;;;;;;;;;;;;6.60;93.19;99156.41;1801918;79;20154;-67
2021/11/22 09:29:56;;;;;;;;;;;;;;;6.73;92.88;99149.98;1800816;78;20119;-67
2021/11/22 09:32:22;;;;;;;;;;;;;;;6.89;91.76;99158.29;1800811;78;20820;-67
2021/11/22 09:34:49;;;;;;;;;;;;;;;6.84;89.42;99153.66;1768993;81;20183;-67
2021/11/22 09:37:16;;;;;;;;;;;;;;;6.76;90.21;99154.86;1794748;79;21750;-66
2021/11/22 09:39:51;;;;;;;;;;;;;;;6.64;89.23;99145.56;1731953;82;20432;-68
2021/11/22 09:42:17;;;;;;;;;;;;;;;6.56;90.37;99147.78;1731915;83;20150;-67
2021/11/22 09:44:44;;;;;;;;;;;;;;;6.63;90.86;99152.46;1732356;83;20145;-66
2021/11/22 09:47:11;;;;;;;;;;;;;;;6.83;89.34;99139.49;1732891;81;20394;-66
2021/11/22 09:49:39;;;;;;;;;;;;;;;7.22;87.65;99139.63;1735247;82;21187;-68
2021/11/22 09:52:06;;;;;;;;;;;;;;;7.82;84.72;99140.03;1731755;81;20203;-67
2021/11/22 09:54:33;;;;;;;;;;;;;;;8.24;78.80;99138.98;1707551;83;20147;-68
2021/11/22 09:57:00;;;;;;;;;;;;;;;8.19;76.82;99136.78;1707999;83;20233;-67
2021/11/22 10:02:46;;;;;;;;;;;;;;;8.97;74.80;99152.14;1692668;83;21849;-68
2021/11/22 10:05:29;;;;;;;;;;;;;;;9.17;71.64;99150.98;1699783;82;20093;-67
2021/11/22 10:08:10;;;;;;;;;;;;;;;9.13;71.17;99147.73;1682667;83;20210;-68
2021/11/22 10:10:50;;;;;;;;;;;;;;;9.02;69.01;99149.52;1705979;82;20200;-66
2021/11/22 10:13:20;;;;;;;;;;;;;;;9.24;70.00;99149.45;1707508;82;20208;-67
2021/11/22 10:15:46;;;;;;;;;;;;;;;9.33;68.22;99161.83;1703265;83;22365;-68
2021/11/22 10:18:21;;;;;;;;;;;;;;;9.38;67.71;99161.36;1761660;81;20500;-67
2021/11/22 10:20:49;;;;;;;;;;;;;;;9.42;66.46;99167.80;1770168;79;20484;-68
2021/11/22 10:23:24;;;;;;;;;;;;;;;9.21;66.21;99165.49;1756627;80;20104;-67
2021/11/22 10:25:50;;;;;;;;;;;;;;;9.17;66.52;99163.03;1768288;80;20086;-67
2021/11/22 10:28:25;;;;;;;;;;;;;;;9.50;66.46;99173.22;1781492;80;21072;-66
2021/11/22 10:31:03;;;;;;;;;;;;;;;9.63;64.69;99174.67;1783161;79;20671;-66
2021/11/22 10:33:33;;;;;;;;;;;;;;;9.16;66.74;99171.31;1777399;80;20116;-65
2021/11/22 10:36:02;;;;;;;;;;;;;;;9.47;66.46;99181.77;1786914;80;20476;-67
2021/11/22 10:38:30;;;;;;;;;;;;;;;9.93;64.00;99180.77;1791160;80;20645;-68
2021/11/22 10:41:29;;;;;;;;;;;;;;;9.80;61.84;99186.56;1775608;81;21725;-65
2021/11/22 10:44:03;;;;;;;;;;;;;;;9.42;62.91;99189.23;1770822;79;20177;-66
2021/11/22 10:46:36;;;;;;;;;;;;;;;9.28;64.94;99188.56;1763065;81;20086;-66
2021/11/22 10:49:28;;;;;;;;;;;;;;;10.01;64.04;99179.48;1771423;79;20164;-67
2021/11/22 10:51:50;;;;;;;;;;;;;;;10.35;61.08;99172.45;1785744;80;20419;-66
2021/11/22 10:54:19;;;;;;;;;;;;;;;10.81;58.92;99180.14;1778894;80;21113;-64
2021/11/22 10:56:48;;;;;;;;;;;;;;;10.78;58.76;99183.88;1766500;80;20211;-64
2021/11/22 10:59:20;;;;;;;;;;;;;;;10.64;57.75;99180.35;1762999;81;20164;-65
2021/11/22 11:01:49;;;;;;;;;;;;;;;10.11;59.42;99182.75;1779416;79;20095;-65
2021/11/22 11:04:19;;;;;;;;;;;;;;;9.31;62.67;99180.02;1729819;81;20138;-63
2021/11/22 11:06:55;;;;;;;;;;;;;;;9.45;63.93;99180.67;1725226;82;21125;-65
2021/11/22 11:09:31;;;;;;;;;;;;;;;9.81;62.63;99181.50;1727650;82;20605;-63
2021/11/22 11:12:06;;;;;;;;;;;;;;;9.14;64.53;99185.51;1734531;81;20080;-64
2021/11/22 11:14:34;;;;;;;;;;;;;;;8.43;67.49;99171.62;1735835;82;20151;-64
2021/11/22 11:17:13;;;;;;;;;;;;;;;7.93;70.73;99165.83;1736903;82;20182;-64
2021/11/22 11:19:40;;;;;;;;;;;;;;;7.69;73.14;99168.71;1741910;81;21103;-64
2021/11/22 11:22:07;;;;;;;;;;;;;;;7.95;75.00;99166.39;1735264;82;20118;-61
2021/11/22 11:24:34;;;;;;;;;;;;;;;8.75;70.82;99173.05;1737946;82;20475;-61
2021/11/22 11:27:01;;;;;;;;;;;;;;;9.40;66.03;99170.45;1739159;81;20549;-62
2021/11/22 11:29:28;;;;;;;;;;;;;;;9.53;64.33;99170.55;1722944;81;20467;-63
2021/11/22 11:31:55;;;;;;;;;;;;;;;9.56;62.46;99177.56;1725978;81;21664;-62
2021/11/22 11:34:27;;;;;;;;;;;;;;;9.35;63.52;99181.93;1723905;82;20090;-64
2021/11/22 11:37:24;;;;;;;;;;;;;;;9.40;63.39;99177.16;1718308;82;20111;-61
2021/11/22 11:40:15;;;;;;;;;;;;;;;9.41;62.20;99185.48;1724664;82;20134;-62
2021/11/22 11:43:10;;;;;;;;;;;;;;;9.54;62.47;99189.60;1735417;82;20390;-63
2021/11/22 11:45:45;;;;;;;;;;;;;;;9.36;62.17;99186.78;1732683;82;21128;-64
2021/11/22 11:48:31;;;;;;;;;;;;;;;9.07;63.46;99191.05;1720651;82;20125;-63
2021/11/22 11:51:06;;;;;;;;;;;;;;;8.94;63.95;99184.74;1730993;81;20152;-62
2021/11/22 11:53:33;;;;;;;;;;;;;;;8.49;66.43;99190.67;1726084;82;20162;-63
2021/11/22 11:56:10;;;;;;;;;;;;;;;8.56;67.12;99188.61;1719614;82;20419;-61
2021/11/22 11:58:36;;;;;;;;;;;;;;;8.85;65.68;99180.39;1746936;82;20725;-62
2021/11/22 12:01:15;;;;;;;;;;;;;;;9.09;65.97;99183.58;1742444;82;20139;-63
2021/11/22 12:04:02;;;;;;;;;;;;;;;9.47;63.14;99191.14;1743620;81;20162;-62
2021/11/22 12:06:53;;;;;;;;;;;;;;;9.64;63.25;99198.52;1740175;82;20142;-64
2021/11/22 12:09:38;;;;;;;;;;;;;;;9.39;62.15;99192.42;1747999;82;20505;-63
2021/11/22 12:12:12;;;;;;;;;;;;;;;8.77;65.06;99198.20;1743027;80;21078;-63
2021/11/22 12:15:00;;;;;;;;;;;;;;;8.25;67.17;99195.41;1736979;81;20646;-65
2021/11/22 12:17:39;;;;;;;;;;;;;;;8.21;67.74;99200.18;1744345;82;20158;-64
2021/11/22 12:20:10;;;;;;;;;;;;;;;8.25;67.75;99209.30;1745166;81;20140;-63
2021/11/22 12:22:38;;;;;;;;;;;;;;;8.14;68.40;99205.70;1740396;81;20130;-65
2021/11/22 12:25:06;;;;;;;;;;;;;;;7.84;69.15;99210.88;1739915;82;21138;-63
2021/11/22 12:27:38;;;;;;;;;;;;;;;7.68;71.39;99212.48;1750007;82;20091;-65
2021/11/22 12:30:31;;;;;;;;;;;;;;;7.58;71.96;99208.85;1750163;82;20135;-64
2021/11/22 12:33:02;;;;;;;;;;;;;;;7.32;72.80;99219.09;1689413;85;20180;-65
2021/11/22 12:35:34;;;;;;;;;;;;;;;7.08;74.73;99211.74;1678043;85;20183;-63
2021/11/22 12:38:23;;;;;;;;;;;;;;;6.89;75.53;99217.78;1702266;83;21155;-64
2021/11/22 12:40:53;;;;;;;;;;;;;;;6.77;76.80;99209.81;1710727;84;20418;-63
2021/11/22 12:43:45;;;;;;;;;;;;;;;6.66;77.44;99214.65;1710796;84;20085;-64
2021/11/22 12:46:18;;;;;;;;;;;;;;;6.63;77.77;99219.94;1710914;83;20094;-64
2021/11/22 12:48:46;;;;;;;;;;;;;;;6.54;79.25;99217.88;1710693;84;20146;-65
2021/11/22 12:51:15;;;;;;;;;;;;;;;6.34;79.62;99219.59;1710709;84;21218;-65
2021/11/22 12:54:02;;;;;;;;;;;;;;;6.21;80.62;99227.31;1710839;84;20090;-65
2021/11/22 12:56:36;;;;;;;;;;;;;;;6.06;81.83;99226.45;1709092;83;20113;-64
2021/11/22 12:59:15;;;;;;;;;;;;;;;5.98;82.42;99225.48;1702878;83;20880;-65
2021/11/22 13:01:39;;;;;;;;;;;;;;;5.95;82.60;99228.09;1703661;84;20501;-65
2021/11/22 13:04:06;;;;;;;;;;;;;;;6.25;83.23;99221.82;1703760;84;21119;-65
2021/11/22 13:06:39;;;;;;;;;;;;;;;6.59;79.51;99228.14;1703669;84;20431;-65
2021/11/22 13:09:12;;;;;;;;;;;;;;;6.62;79.65;99231.66;1706678;84;20142;-65
2021/11/22 13:11:45;;;;;;;;;;;;;;;6.58;79.26;99239.03;1685798;83;20206;-64
2021/11/22 13:14:14;;;;;;;;;;;;;;;6.46;79.33;99236.91;1736417;82;20424;-65
2021/11/22 13:16:42;;;;;;;;;;;;;;;6.29;80.21;99244.28;1737672;82;21073;-64
2021/11/22 13:19:11;;;;;;;;;;;;;;;6.28;80.60;99240.00;1722968;83;20203;-63
2021/11/22 13:21:49;;;;;;;;;;;;;;;6.39;79.11;99247.19;1753907;82;20078;-64
2021/11/22 13:24:19;;;;;;;;;;;;;;;6.28;79.50;99247.20;1754483;82;20122;-65
2021/11/22 13:26:46;;;;;;;;;;;;;;;6.01;80.88;99245.00;1759793;81;20141;-64